createdAt,value
2018-12-01T00:01:15.153Z,98085.36
2018-12-01T00:06:18.355Z,98083.60
2018-12-01T00:11:21.593Z,98081.16
2018-12-01T00:16:24.911Z,98083.08
2018-12-01T00:21:28.142Z,98083.86
2018-12-01T00:26:31.336Z,98085.53
2018-12-01T00:31:34.569Z,98080.54
2018-12-01T00:36:37.733Z,98081.06
2018-12-01T00:41:40.901Z,98083.08
2018-12-01T00:46:44.067Z,98081.27
2018-12-01T00:51:47.312Z,98079.83
2018-12-01T00:56:50.542Z,98095.08
2018-12-01T01:01:53.694Z,98097.36
2018-12-01T01:06:56.921Z,98093.91
2018-12-01T01:12:00.105Z,98104.23
2018-12-01T01:17:03.304Z,98108.09
2018-12-01T01:22:06.877Z,98114.57
2018-12-01T01:27:10.066Z,98122.94
2018-12-01T01:32:13.276Z,98130.47
2018-12-01T01:37:16.465Z,98121.38
2018-12-01T01:42:19.669Z,98124.94
2018-12-01T01:47:22.882Z,98127.43
2018-12-01T01:52:26.071Z,98133.52
2018-12-01T01:57:29.274Z,98127.92
2018-12-01T02:02:32.548Z,98126.39
2018-12-01T02:07:35.763Z,98138.67
2018-12-01T02:12:38.957Z,98136.63
2018-12-01T02:17:42.201Z,98134.86
2018-12-01T02:22:45.513Z,98131.57
2018-12-01T02:27:48.872Z,98131.28
2018-12-01T02:32:52.043Z,98126.56
2018-12-01T02:37:55.237Z,98123.11
2018-12-01T02:42:58.425Z,98126.04
2018-12-01T02:48:01.590Z,98123.66
2018-12-01T02:53:04.865Z,98123.02
2018-12-01T02:58:08.027Z,98127.67
2018-12-01T03:03:11.224Z,98131.35
2018-12-01T03:08:14.426Z,98137.05
2018-12-01T03:13:17.584Z,98138.97
2018-12-01T03:18:20.765Z,98139.06
2018-12-01T03:23:23.938Z,98139.48
2018-12-01T03:28:27.081Z,98140.59
2018-12-01T03:33:30.250Z,98140.34
2018-12-01T03:38:33.465Z,98148.70
2018-12-01T03:43:36.608Z,98148.70
2018-12-01T03:48:39.752Z,98149.22
2018-12-01T03:53:42.964Z,98150.20
2018-12-01T03:58:46.133Z,98147.66
2018-12-01T04:03:49.333Z,98145.62
2018-12-01T04:08:52.482Z,98140.85
2018-12-01T04:13:55.616Z,98139.02
2018-12-01T04:18:58.794Z,98153.50
2018-12-01T04:24:01.960Z,98149.23
2018-12-01T04:29:05.239Z,98153.58
2018-12-01T04:34:08.428Z,98150.67
2018-12-01T04:39:12.173Z,98161.63
2018-12-01T04:44:14.844Z,98158.09
2018-12-01T04:49:18.085Z,98165.47
2018-12-01T04:54:21.232Z,98165.23
2018-12-01T04:59:24.387Z,98167.30
2018-12-01T05:04:27.601Z,98162.22
2018-12-01T05:09:30.765Z,98164.52
2018-12-01T05:14:33.926Z,98172.64
2018-12-01T05:19:37.086Z,98176.88
2018-12-01T05:24:40.244Z,98184.84
2018-12-01T05:29:43.429Z,98178.16
2018-12-01T05:34:46.570Z,98186.11
2018-12-01T05:39:49.753Z,98196.00
2018-12-01T05:44:52.996Z,98190.92
2018-12-01T05:49:56.181Z,98188.00
2018-12-01T05:54:59.323Z,98193.72
2018-12-01T06:00:02.757Z,98192.92
2018-12-01T06:05:06.304Z,98188.87
2018-12-01T06:10:14.965Z,98187.84
2018-12-01T06:15:19.202Z,98193.39
2018-12-01T06:20:23.285Z,98198.86
2018-12-01T06:25:26.454Z,98205.52
2018-12-01T06:30:29.605Z,98213.53
2018-12-01T06:35:32.789Z,98220.56
2018-12-01T06:40:35.929Z,98220.53
2018-12-01T06:45:39.092Z,98228.14
2018-12-01T06:50:42.349Z,98234.65
2018-12-01T06:55:46.404Z,98250.34
2018-12-01T07:00:49.568Z,98251.62
2018-12-01T07:05:52.761Z,98249.86
2018-12-01T07:10:55.993Z,98253.91
2018-12-01T07:15:59.178Z,98254.55
2018-12-01T07:21:02.419Z,98266.59
2018-12-01T07:26:05.706Z,98269.24
2018-12-01T07:31:08.890Z,98273.80
2018-12-01T07:36:12.057Z,98268.22
2018-12-01T07:41:15.342Z,98262.54
2018-12-01T07:46:18.541Z,98266.31
2018-12-01T07:51:21.757Z,98269.73
2018-12-01T07:56:24.954Z,98268.86
2018-12-01T08:01:28.142Z,98261.74
2018-12-01T08:06:31.345Z,98268.22
2018-12-01T08:11:34.547Z,98258.98
2018-12-01T08:16:37.792Z,98261.25
2018-12-01T08:21:41.049Z,98257.05
2018-12-01T08:26:44.278Z,98254.52
2018-12-01T08:31:47.522Z,98261.22
2018-12-01T08:36:50.836Z,98259.06
2018-12-01T08:41:54.103Z,98253.64
2018-12-01T08:46:57.318Z,98252.95
2018-12-01T08:52:00.493Z,98251.05
2018-12-01T08:57:03.703Z,98249.77
2018-12-01T09:02:06.873Z,98251.20
2018-12-01T09:07:10.095Z,98249.56
2018-12-01T09:12:14.236Z,98241.05
2018-12-01T09:17:16.885Z,98236.87
2018-12-01T09:22:20.445Z,98230.16
2018-12-01T09:27:23.715Z,98226.28
2018-12-01T09:32:26.934Z,98228.48
2018-12-01T09:37:30.162Z,98227.03
2018-12-01T09:42:33.408Z,98228.59
2018-12-01T09:47:36.660Z,98216.27
2018-12-01T09:52:39.901Z,98215.28
2018-12-01T09:57:44.265Z,98214.86
2018-12-01T10:02:47.831Z,98207.20
2018-12-01T10:07:51.070Z,98211.80
2018-12-01T10:12:55.789Z,98214.48
2018-12-01T10:17:59.074Z,98207.82
2018-12-01T10:23:11.453Z,98210.61
2018-12-01T10:28:14.650Z,98193.63
2018-12-01T10:33:17.968Z,98181.33
2018-12-01T10:38:21.214Z,98176.94
2018-12-01T10:43:24.501Z,98176.97
2018-12-01T10:48:27.723Z,98167.31
2018-12-01T10:53:30.967Z,98167.12
2018-12-01T10:58:34.177Z,98164.34
2018-12-01T11:03:39.921Z,98161.40
2018-12-01T11:08:43.187Z,98165.69
2018-12-01T11:13:46.429Z,98166.73
2018-12-01T11:18:49.710Z,98164.50
2018-12-01T11:23:52.944Z,98147.00
2018-12-01T11:28:56.246Z,98138.77
2018-12-01T11:33:59.544Z,98137.84
2018-12-01T11:39:03.237Z,98131.32
2018-12-01T11:44:07.168Z,98124.48
2018-12-01T11:49:10.330Z,98119.84
2018-12-01T11:54:13.639Z,98120.19
2018-12-01T11:59:16.887Z,98107.41
2018-12-01T12:04:20.289Z,98106.44
2018-12-01T12:09:23.652Z,98089.88
2018-12-01T12:14:26.890Z,98105.35
2018-12-01T12:19:30.237Z,98102.42
2018-12-01T12:24:33.490Z,98105.69
2018-12-01T12:29:36.805Z,98109.71
2018-12-01T12:34:40.111Z,98105.79
2018-12-01T12:39:43.309Z,98100.09
2018-12-01T12:44:46.537Z,98102.00
2018-12-01T12:49:49.790Z,98103.31
2018-12-01T12:54:53.046Z,98100.32
2018-12-01T12:59:56.290Z,98096.19
2018-12-01T13:04:59.567Z,98082.72
2018-12-01T13:10:02.857Z,98078.23
2018-12-01T13:15:09.861Z,98077.89
2018-12-01T13:20:15.697Z,98067.62
2018-12-01T13:25:18.953Z,98066.63
2018-12-01T13:30:24.606Z,98066.20
2018-12-01T13:35:27.818Z,98053.71
2018-12-01T13:40:31.262Z,98040.80
2018-12-01T13:45:34.975Z,98040.69
2018-12-01T13:50:38.791Z,98029.36
2018-12-01T13:55:42.653Z,98032.09
2018-12-01T14:00:45.987Z,98030.16
2018-12-01T14:05:49.691Z,98022.52
2018-12-01T14:10:52.969Z,98024.06
2018-12-01T14:15:56.951Z,98018.84
2018-12-01T14:21:00.177Z,98020.51
2018-12-01T14:26:04.232Z,98031.42
2018-12-01T14:31:08.545Z,98043.73
2018-12-01T14:36:12.713Z,98039.94
2018-12-01T14:41:15.986Z,98039.06
2018-12-01T14:46:19.249Z,98044.68
2018-12-01T14:51:22.497Z,98044.97
2018-12-01T14:56:25.714Z,98050.61
2018-12-01T15:01:29.017Z,98041.40
2018-12-01T15:06:32.319Z,98040.55
2018-12-01T15:11:35.793Z,98040.93
2018-12-01T15:16:39.018Z,98031.64
2018-12-01T15:21:42.316Z,98025.45
2018-12-01T15:26:45.701Z,98022.03
2018-12-01T15:31:49.266Z,98026.64
2018-12-01T15:36:52.507Z,98019.87
2018-12-01T15:41:56.430Z,98021.73
2018-12-01T15:46:59.217Z,98023.38
2018-12-01T15:52:02.510Z,98015.42
2018-12-01T15:57:06.162Z,98015.90
2018-12-01T16:02:09.498Z,98012.23
2018-12-01T16:07:12.755Z,98009.80
2018-12-01T16:12:15.971Z,98017.32
2018-12-01T16:17:19.346Z,98017.20
2018-12-01T16:22:22.617Z,98019.47
2018-12-01T16:27:25.850Z,98009.75
2018-12-01T16:32:29.118Z,98010.23
2018-12-01T16:37:33.508Z,98013.17
2018-12-01T16:42:37.116Z,98006.67
2018-12-01T16:47:40.327Z,98005.75
2018-12-01T16:52:44.821Z,97995.95
2018-12-01T16:57:48.106Z,97998.52
2018-12-01T17:02:56.440Z,97993.81
2018-12-01T17:07:59.717Z,97993.40
2018-12-01T17:13:02.989Z,97989.34
2018-12-01T17:18:08.136Z,97986.66
2018-12-01T17:23:15.430Z,97985.64
2018-12-01T17:28:19.588Z,97989.58
2018-12-01T17:33:22.946Z,97988.98
2018-12-01T17:38:26.193Z,97982.77
2018-12-01T17:43:35.107Z,97977.78
2018-12-01T17:48:38.818Z,97971.76
2018-12-01T17:53:44.821Z,97963.14
2018-12-01T17:58:48.082Z,97963.48
2018-12-01T18:03:51.425Z,97967.53
2018-12-01T18:08:55.159Z,97965.02
2018-12-01T18:13:58.390Z,97969.38
2018-12-01T18:19:02.573Z,97961.41
2018-12-01T18:24:05.944Z,97958.16
2018-12-01T18:29:09.389Z,97963.34
2018-12-01T18:34:15.000Z,97958.76
2018-12-01T18:39:19.260Z,97948.77
2018-12-01T18:44:22.485Z,97945.13
2018-12-01T18:49:25.791Z,97938.12
2018-12-01T18:54:29.090Z,97931.98
2018-12-01T18:59:32.369Z,97927.17
2018-12-01T19:04:35.650Z,97923.98
2018-12-01T19:09:38.935Z,97919.99
2018-12-01T19:14:42.277Z,97915.79
2018-12-01T19:19:45.585Z,97911.36
2018-12-01T19:24:48.896Z,97916.76
2018-12-01T19:29:53.093Z,97916.40
2018-12-01T19:34:56.558Z,97903.80
2018-12-01T19:40:00.984Z,97903.83
2018-12-01T19:45:04.279Z,97895.23
2018-12-01T19:50:24.078Z,97906.72
2018-12-01T19:55:28.315Z,97901.20
2018-12-01T20:00:31.647Z,97902.20
2018-12-01T20:05:34.931Z,97897.70
2018-12-01T20:11:01.483Z,97903.75
2018-12-01T20:16:23.177Z,97894.64
2018-12-01T20:21:26.492Z,97892.72
2018-12-01T20:26:29.983Z,97892.44
2018-12-01T20:31:33.361Z,97874.23
2018-12-01T20:36:40.324Z,97868.11
2018-12-01T20:41:43.549Z,97860.50
2018-12-01T20:46:47.627Z,97847.54
2018-12-01T20:51:50.849Z,97852.52
2018-12-01T20:57:02.037Z,97841.14
2018-12-01T21:02:05.984Z,97841.65
2018-12-01T21:07:09.317Z,97838.20
2018-12-01T21:12:13.670Z,97836.36
2018-12-01T21:17:17.002Z,97829.61
2018-12-01T21:22:20.263Z,97823.64
2018-12-01T21:27:23.504Z,97821.89
2018-12-01T21:32:26.753Z,97813.48
2018-12-01T21:37:30.003Z,97810.95
2018-12-01T21:42:33.218Z,97804.45
2018-12-01T21:47:36.554Z,97796.05
2018-12-01T21:52:40.716Z,97779.95
2018-12-01T21:57:46.001Z,97791.91
2018-12-01T22:02:53.714Z,97789.31
2018-12-01T22:07:57.102Z,97783.39
2018-12-01T22:13:01.037Z,97782.86
2018-12-01T22:18:05.355Z,97774.03
2018-12-01T22:23:08.591Z,97753.27
2018-12-01T22:28:13.922Z,97756.68
2018-12-01T22:33:21.847Z,97754.71
2018-12-01T22:38:26.872Z,97759.77
2018-12-01T22:43:30.131Z,97752.55
2018-12-01T22:48:33.968Z,97751.28
2018-12-01T22:53:38.448Z,97759.90
2018-12-01T22:58:41.690Z,97741.70
2018-12-01T23:03:44.908Z,97734.09
2018-12-01T23:08:48.170Z,97726.77
2018-12-01T23:13:51.393Z,97711.18
2018-12-01T23:18:55.616Z,97689.36
2018-12-01T23:23:57.853Z,97692.98
2018-12-01T23:29:01.108Z,97698.79
2018-12-01T23:34:04.533Z,97688.86
2018-12-01T23:39:07.765Z,97688.48
2018-12-01T23:44:19.182Z,97672.00
2018-12-01T23:49:23.343Z,97670.45
2018-12-01T23:54:26.545Z,97662.80
2018-12-01T23:59:29.749Z,97651.25
